createdAt,value
2023-04-09T00:00:18.776Z,495.1667
2023-04-09T00:01:22.935Z,496.5000
2023-04-09T00:02:26.905Z,492.2500
2023-04-09T00:03:30.813Z,492.7500
2023-04-09T00:04:34.765Z,493.2500
2023-04-09T00:05:38.627Z,493.6667
2023-04-09T00:06:42.535Z,494.2500
2023-04-09T00:07:46.425Z,494.0833
2023-04-09T00:08:50.813Z,495.9167
2023-04-09T00:09:54.775Z,494.7500
2023-04-09T00:10:58.914Z,491.3333
2023-04-09T00:12:02.899Z,490.1667
2023-04-09T00:13:06.723Z,492.7500
2023-04-09T00:14:10.627Z,495.5000
2023-04-09T00:15:23.996Z,494.6667
2023-04-09T00:16:19.054Z,493.8182
2023-04-09T00:17:22.958Z,490.4167
2023-04-09T00:18:26.836Z,492.7500
2023-04-09T00:19:30.718Z,493.0833
2023-04-09T00:20:34.617Z,493.7500
2023-04-09T00:21:38.850Z,493.3333
2023-04-09T00:22:42.746Z,492.0000
2023-04-09T00:23:42.942Z,490.0000
2023-04-09T00:24:46.848Z,489.7500
2023-04-09T00:25:50.738Z,491.8333
2023-04-09T00:26:54.639Z,493.1667
2023-04-09T00:27:58.515Z,491.1667
2023-04-09T00:29:02.418Z,490.6667
2023-04-09T00:30:06.308Z,490.5000
2023-04-09T00:31:10.225Z,491.5000
2023-04-09T00:32:14.084Z,492.2500
2023-04-09T00:33:17.990Z,491.8333
2023-04-09T00:34:21.880Z,490.0000
2023-04-09T00:35:25.802Z,488.4167
2023-04-09T00:36:29.900Z,490.9167
2023-04-09T00:37:33.809Z,493.2500
2023-04-09T00:38:37.709Z,494.5000
2023-04-09T00:39:41.668Z,495.5833
2023-04-09T00:40:45.504Z,496.1667
2023-04-09T00:41:49.410Z,494.5000
2023-04-09T00:42:53.297Z,491.6667
2023-04-09T00:43:57.233Z,490.0833
2023-04-09T00:45:01.131Z,488.6667
2023-04-09T00:46:05.046Z,492.3333
2023-04-09T00:47:08.953Z,492.3333
2023-04-09T00:48:12.824Z,491.4167
2023-04-09T00:49:16.728Z,491.0833
2023-04-09T00:50:20.636Z,490.3333
2023-04-09T00:51:24.543Z,489.9167
2023-04-09T00:52:28.414Z,492.3333
2023-04-09T00:53:32.323Z,495.0833
2023-04-09T00:54:36.234Z,495.7500
2023-04-09T00:55:40.141Z,495.8333
2023-04-09T00:56:44.010Z,497.2500
2023-04-09T00:57:47.935Z,495.9167
2023-04-09T00:58:52.377Z,493.2500
2023-04-09T00:59:56.443Z,493.3333
2023-04-09T01:01:00.352Z,490.5000
2023-04-09T01:02:04.276Z,488.7500
2023-04-09T01:03:08.289Z,489.4167
2023-04-09T01:04:12.211Z,492.1667
2023-04-09T01:05:16.112Z,491.1667
2023-04-09T01:06:20.176Z,490.8333
2023-04-09T01:07:24.063Z,488.0833
2023-04-09T01:08:27.965Z,487.5000
2023-04-09T01:09:31.847Z,491.2500
2023-04-09T01:10:35.762Z,490.0000
2023-04-09T01:11:39.642Z,491.5833
2023-04-09T01:12:43.542Z,496.6667
2023-04-09T01:13:47.760Z,495.6667
2023-04-09T01:14:51.659Z,499.3333
2023-04-09T01:15:55.642Z,493.8333
2023-04-09T01:16:59.542Z,494.1667
2023-04-09T01:18:03.489Z,497.1667
2023-04-09T01:19:07.343Z,498.4167
2023-04-09T01:20:11.229Z,496.4167
2023-04-09T01:21:15.355Z,498.0833
2023-04-09T01:22:19.235Z,496.9167
2023-04-09T01:23:23.138Z,495.8333
2023-04-09T01:24:27.249Z,498.9167
2023-04-09T01:25:31.150Z,495.8333
2023-04-09T01:26:35.058Z,497.0000
2023-04-09T01:27:38.968Z,498.5833
2023-04-09T01:28:42.868Z,492.5833
2023-04-09T01:29:46.760Z,488.1667
2023-04-09T01:30:50.717Z,492.7500
2023-04-09T01:31:54.833Z,494.9167
2023-04-09T01:32:58.805Z,491.6667
2023-04-09T01:34:02.873Z,489.7500
2023-04-09T01:35:06.778Z,488.8333
2023-04-09T01:36:10.676Z,488.7500
2023-04-09T01:37:14.564Z,490.2500
2023-04-09T01:38:18.471Z,490.7500
2023-04-09T01:39:22.604Z,493.2500
2023-04-09T01:40:26.508Z,490.3333
2023-04-09T01:41:30.728Z,491.0000
2023-04-09T01:42:34.617Z,491.0000
2023-04-09T01:43:38.506Z,494.9167
2023-04-09T01:44:42.419Z,495.8333
2023-04-09T01:45:46.327Z,496.0833
2023-04-09T01:46:50.299Z,494.9167
2023-04-09T01:47:54.241Z,492.4167
2023-04-09T01:48:58.361Z,493.0833
2023-04-09T01:50:02.317Z,493.5000
2023-04-09T01:51:06.287Z,492.0000
2023-04-09T01:52:10.192Z,492.0000
2023-04-09T01:53:14.090Z,489.9167
2023-04-09T01:54:17.983Z,496.0000
2023-04-09T01:55:21.885Z,492.0000
2023-04-09T01:56:25.982Z,492.5000
2023-04-09T01:57:29.876Z,492.0000
2023-04-09T01:58:33.781Z,492.4167
2023-04-09T01:59:37.965Z,496.3333
2023-04-09T02:00:41.859Z,492.4167
2023-04-09T02:01:45.833Z,491.1667
2023-04-09T02:02:49.858Z,490.6667
2023-04-09T02:03:53.877Z,487.4167
2023-04-09T02:04:57.777Z,489.8333
2023-04-09T02:05:58.126Z,491.2000
2023-04-09T02:07:02.012Z,492.5000
2023-04-09T02:08:05.913Z,497.4167
2023-04-09T02:09:09.997Z,495.3333
2023-04-09T02:11:18.988Z,483.8000
2023-04-09T02:11:18.988Z,495.0833
2023-04-09T02:12:22.866Z,483.8333
2023-04-09T02:13:26.771Z,486.5000
2023-04-09T02:14:30.668Z,493.1667
2023-04-09T02:15:34.585Z,493.5000
2023-04-09T02:16:38.747Z,494.1667
2023-04-09T02:17:42.656Z,495.0833
2023-04-09T02:18:46.779Z,494.7500
2023-04-09T02:19:50.650Z,494.8333
2023-04-09T02:20:54.545Z,495.0000
2023-04-09T02:21:58.437Z,494.9167
2023-04-09T02:23:02.345Z,494.7500
2023-04-09T02:24:06.259Z,494.2500
2023-04-09T02:25:10.172Z,493.2500
2023-04-09T02:26:14.051Z,495.3333
2023-04-09T02:27:18.007Z,494.5833
2023-04-09T02:28:21.874Z,491.5833
2023-04-09T02:29:25.797Z,496.5000
2023-04-09T02:30:29.664Z,499.0833
2023-04-09T02:31:33.866Z,494.7500
2023-04-09T02:32:37.831Z,498.0000
2023-04-09T02:33:41.703Z,494.1667
2023-04-09T02:34:45.601Z,494.2500
2023-04-09T02:35:49.546Z,494.8333
2023-04-09T02:36:53.404Z,496.0000
2023-04-09T02:37:57.318Z,495.7500
2023-04-09T02:39:01.438Z,498.5000
2023-04-09T02:40:05.373Z,498.5000
2023-04-09T02:41:09.257Z,495.1667
2023-04-09T02:42:13.357Z,497.3333
2023-04-09T02:43:17.273Z,496.0833
2023-04-09T02:44:21.146Z,498.5000
2023-04-09T02:45:25.062Z,498.5833
2023-04-09T02:46:29.013Z,495.1667
2023-04-09T02:47:32.968Z,494.6667
2023-04-09T02:48:36.839Z,494.0000
2023-04-09T02:49:40.742Z,497.0000
2023-04-09T02:50:44.664Z,497.5833
2023-04-09T02:51:48.623Z,500.5833
2023-04-09T02:52:52.531Z,500.1667
2023-04-09T02:53:56.732Z,499.6667
2023-04-09T02:55:00.644Z,496.2500
2023-04-09T02:56:04.525Z,491.5833
2023-04-09T02:57:08.437Z,494.3333
2023-04-09T02:58:12.312Z,495.0000
2023-04-09T02:59:16.222Z,497.2500
2023-04-09T03:00:20.117Z,492.3333
2023-04-09T03:01:24.035Z,490.3333
2023-04-09T03:02:28.091Z,491.9167
2023-04-09T03:03:32.098Z,492.6667
2023-04-09T03:04:36.033Z,490.6667
2023-04-09T03:05:39.937Z,491.3333
2023-04-09T03:06:44.053Z,489.6667
2023-04-09T03:07:47.959Z,491.0833
2023-04-09T03:08:52.281Z,494.5000
2023-04-09T03:09:56.306Z,495.8333
2023-04-09T03:11:00.184Z,494.2500
2023-04-09T03:12:04.090Z,492.7500
2023-04-09T03:13:07.982Z,492.0000
2023-04-09T03:14:11.879Z,490.4167
2023-04-09T03:15:15.785Z,490.4167
2023-04-09T03:16:19.724Z,489.7500
2023-04-09T03:17:23.593Z,490.9167
2023-04-09T03:18:27.509Z,494.7500
2023-04-09T03:19:31.395Z,495.5833
2023-04-09T03:20:35.291Z,495.2500
2023-04-09T03:21:39.184Z,491.7500
2023-04-09T03:22:43.089Z,492.8333
2023-04-09T03:23:46.974Z,493.1667
2023-04-09T03:24:50.874Z,493.8333
2023-04-09T03:25:54.774Z,492.6667
2023-04-09T03:26:58.887Z,491.5000
2023-04-09T03:28:02.830Z,490.0833
2023-04-09T03:29:06.690Z,489.2500
2023-04-09T03:30:10.595Z,493.0000
2023-04-09T03:31:14.554Z,493.1667
2023-04-09T03:32:19.174Z,494.3333
2023-04-09T03:33:23.053Z,500.3333
2023-04-09T03:34:26.963Z,492.8333
2023-04-09T03:35:30.884Z,490.5000
2023-04-09T03:36:34.777Z,489.4167
2023-04-09T03:37:38.660Z,495.6667
2023-04-09T03:38:42.576Z,495.5000
2023-04-09T03:39:46.693Z,493.5000
2023-04-09T03:40:50.606Z,492.5000
2023-04-09T03:41:54.710Z,492.0833
2023-04-09T03:42:58.632Z,495.5000
2023-04-09T03:44:02.529Z,496.0000
2023-04-09T03:45:06.424Z,494.2500
2023-04-09T03:46:10.327Z,491.7500
2023-04-09T03:47:14.442Z,491.3333
2023-04-09T03:48:18.342Z,497.9167
2023-04-09T03:49:22.472Z,496.9167
2023-04-09T03:50:26.354Z,493.0833
2023-04-09T03:51:30.265Z,493.0833
2023-04-09T03:52:34.153Z,492.5000
2023-04-09T03:53:38.087Z,491.6667
2023-04-09T03:54:42.291Z,489.3333
2023-04-09T03:55:46.198Z,496.0833
2023-04-09T03:56:50.342Z,497.2500
2023-04-09T03:57:54.247Z,495.7500
2023-04-09T03:58:58.174Z,495.6667
2023-04-09T04:00:02.073Z,495.5833
2023-04-09T04:01:05.954Z,495.0000
2023-04-09T04:02:09.934Z,498.3333
2023-04-09T04:03:13.984Z,496.9167
2023-04-09T04:04:20.468Z,495.3333
2023-04-09T04:05:20.558Z,496.3636
2023-04-09T04:06:24.468Z,496.6667
2023-04-09T04:07:28.363Z,499.2500
2023-04-09T04:08:32.280Z,499.1667
2023-04-09T04:09:36.176Z,495.5000
2023-04-09T04:10:40.084Z,493.2500
2023-04-09T04:11:43.973Z,493.2500
2023-04-09T04:12:47.942Z,493.4167
2023-04-09T04:13:51.820Z,491.2500
2023-04-09T04:14:55.739Z,493.9167
2023-04-09T04:15:59.664Z,494.3333
2023-04-09T04:17:03.761Z,496.5833
2023-04-09T04:18:07.648Z,494.8333
2023-04-09T04:19:11.874Z,494.4167
2023-04-09T04:20:15.752Z,494.5833
2023-04-09T04:21:19.657Z,494.5000
2023-04-09T04:22:26.112Z,498.7500
2023-04-09T04:23:24.909Z,497.9091
2023-04-09T04:24:28.799Z,500.8333
2023-04-09T04:25:32.712Z,503.1667
2023-04-09T04:26:36.612Z,506.2500
2023-04-09T04:27:40.525Z,505.8333
2023-04-09T04:28:44.420Z,502.5833
2023-04-09T04:29:44.515Z,501.0909
2023-04-09T04:30:48.406Z,503.2500
2023-04-09T04:31:52.347Z,506.0000
2023-04-09T04:32:56.240Z,505.6667
2023-04-09T04:34:00.195Z,503.9167
2023-04-09T04:35:04.271Z,503.3333
2023-04-09T04:36:08.166Z,502.5833
2023-04-09T04:37:12.292Z,505.1667
2023-04-09T04:38:16.181Z,500.9167
2023-04-09T04:39:20.095Z,503.4167
2023-04-09T04:40:23.960Z,505.3333
2023-04-09T04:41:27.869Z,503.0000
2023-04-09T04:42:31.961Z,504.4167
2023-04-09T04:43:35.867Z,504.5000
2023-04-09T04:44:39.979Z,508.5833
2023-04-09T04:45:43.926Z,507.8333
2023-04-09T04:46:47.799Z,506.9167
2023-04-09T04:47:51.716Z,507.4167
2023-04-09T04:48:55.587Z,507.7500
2023-04-09T04:49:59.501Z,509.0833
2023-04-09T04:51:03.373Z,507.5000
2023-04-09T04:52:07.614Z,505.9167
2023-04-09T04:53:11.499Z,508.0000
2023-04-09T04:54:15.399Z,510.8333
2023-04-09T04:55:19.289Z,510.0833
2023-04-09T04:56:23.194Z,508.0000
2023-04-09T04:57:27.085Z,506.2500
2023-04-09T04:58:31.005Z,504.2500
2023-04-09T04:59:35.111Z,504.5833
2023-04-09T05:00:39.020Z,504.4167
2023-04-09T05:01:43.015Z,505.6667
2023-04-09T05:02:47.263Z,508.7500
2023-04-09T05:03:51.216Z,510.0000
2023-04-09T05:04:55.192Z,507.0000
2023-04-09T05:05:59.078Z,508.7500
2023-04-09T05:07:02.958Z,509.2500
2023-04-09T05:08:06.872Z,502.7500
2023-04-09T05:09:10.765Z,505.1667
2023-04-09T05:10:14.660Z,505.2500
2023-04-09T05:11:18.536Z,505.0833
2023-04-09T05:12:22.690Z,506.2500
2023-04-09T05:13:26.572Z,507.6667
2023-04-09T05:14:30.484Z,505.6667
2023-04-09T05:15:34.361Z,502.6667
2023-04-09T05:16:38.291Z,501.2500
2023-04-09T05:17:42.203Z,502.5833
2023-04-09T05:18:46.106Z,505.9167
2023-04-09T05:19:49.999Z,507.3333
2023-04-09T05:20:53.912Z,504.2500
2023-04-09T05:21:58.004Z,505.2500
2023-04-09T05:23:01.930Z,506.4167
2023-04-09T05:24:05.818Z,511.2500
2023-04-09T05:25:09.701Z,512.5000
2023-04-09T05:26:13.590Z,509.4167
2023-04-09T05:27:17.502Z,507.5000
2023-04-09T05:28:21.401Z,504.5833
2023-04-09T05:29:26.890Z,507.8333
2023-04-09T05:30:30.800Z,507.9167
2023-04-09T05:31:34.681Z,508.7500
2023-04-09T05:32:38.629Z,509.5833
2023-04-09T05:33:42.487Z,505.9167
2023-04-09T05:34:46.395Z,504.1667
2023-04-09T05:35:50.301Z,502.9167
2023-04-09T05:36:54.208Z,502.9167
2023-04-09T05:37:58.293Z,503.1667
2023-04-09T05:39:02.196Z,502.6667
2023-04-09T05:40:06.414Z,503.7500
2023-04-09T05:41:10.314Z,501.0000
2023-04-09T05:42:14.235Z,501.6667
2023-04-09T05:43:18.105Z,504.5833
2023-04-09T05:44:22.007Z,505.9167
2023-04-09T05:45:25.901Z,502.8333
2023-04-09T05:46:29.911Z,500.5833
2023-04-09T05:47:33.886Z,502.3333
2023-04-09T05:48:37.772Z,500.9167
2023-04-09T05:49:41.640Z,501.4167
2023-04-09T05:50:54.475Z,501.4167
2023-04-09T05:51:50.026Z,503.0000
2023-04-09T05:52:53.934Z,503.3333
2023-04-09T05:53:57.820Z,505.0000
2023-04-09T05:55:01.766Z,509.4167
2023-04-09T05:56:05.609Z,513.2500
2023-04-09T05:57:09.760Z,505.1667
2023-04-09T05:58:13.637Z,502.7500
2023-04-09T05:59:17.536Z,505.4167
2023-04-09T06:00:21.637Z,506.5000
2023-04-09T06:01:25.548Z,505.4167
2023-04-09T06:02:29.485Z,505.1667
2023-04-09T06:03:33.470Z,506.3333
2023-04-09T06:04:37.433Z,503.5000
2023-04-09T06:05:41.330Z,500.9167
2023-04-09T06:06:45.205Z,503.6667
2023-04-09T06:07:49.120Z,502.8333
2023-04-09T06:08:53.014Z,504.0833
2023-04-09T06:09:56.910Z,503.2500
2023-04-09T06:11:00.815Z,503.0833
2023-04-09T06:12:04.754Z,502.3333
2023-04-09T06:13:08.600Z,501.7500
2023-04-09T06:14:12.509Z,501.0000
2023-04-09T06:15:16.398Z,501.6667
2023-04-09T06:16:20.335Z,500.1667
2023-04-09T06:17:20.568Z,501.0909
2023-04-09T06:18:24.440Z,502.0000
2023-04-09T06:19:28.345Z,500.5000
2023-04-09T06:20:32.235Z,500.4167
2023-04-09T06:21:36.131Z,504.5833
2023-04-09T06:22:40.012Z,503.4167
2023-04-09T06:23:43.900Z,504.2500
2023-04-09T06:24:48.132Z,500.6667
2023-04-09T06:25:52.056Z,496.4167
2023-04-09T06:26:55.946Z,499.0000
2023-04-09T06:27:59.827Z,501.7500
2023-04-09T06:29:03.695Z,501.0000
2023-04-09T06:30:07.626Z,503.8333
2023-04-09T06:31:11.537Z,502.3333
2023-04-09T06:32:15.624Z,502.3333
2023-04-09T06:33:19.595Z,503.2500
2023-04-09T06:34:23.493Z,504.2500
2023-04-09T06:35:27.399Z,504.0833
2023-04-09T06:36:31.295Z,504.0000
2023-04-09T06:37:35.192Z,502.7500
2023-04-09T06:38:39.086Z,498.0000
2023-04-09T06:39:50.553Z,495.9167
2023-04-09T06:40:47.480Z,496.5454
2023-04-09T06:41:51.373Z,495.9167
2023-04-09T06:42:55.262Z,498.6667
2023-04-09T06:43:59.145Z,502.9167
2023-04-09T06:45:03.060Z,499.7500
2023-04-09T06:46:06.958Z,495.7500
2023-04-09T06:47:10.850Z,491.9167
2023-04-09T06:48:14.951Z,494.6667
2023-04-09T06:49:18.848Z,497.0000
2023-04-09T06:50:22.978Z,500.4167
2023-04-09T06:51:26.862Z,501.5000
2023-04-09T06:52:30.775Z,498.8333
2023-04-09T06:53:34.743Z,496.3333
2023-04-09T06:54:38.594Z,501.2500
2023-04-09T06:55:42.486Z,505.2500
2023-04-09T06:56:46.380Z,503.1667
2023-04-09T06:57:50.583Z,502.4167
2023-04-09T06:58:54.489Z,500.7500
2023-04-09T06:59:58.374Z,499.6667
2023-04-09T07:01:02.298Z,501.8333
2023-04-09T07:02:06.285Z,500.2500
2023-04-09T07:03:10.253Z,498.3333
2023-04-09T07:04:14.201Z,499.5000
2023-04-09T07:05:18.323Z,494.0000
2023-04-09T07:06:22.198Z,494.1667
2023-04-09T07:07:26.315Z,493.2500
2023-04-09T07:08:30.229Z,495.0833
2023-04-09T07:09:34.131Z,495.9167
2023-04-09T07:10:38.015Z,494.5000
2023-04-09T07:11:41.894Z,497.1667
2023-04-09T07:12:45.809Z,498.8333
2023-04-09T07:13:49.692Z,497.8333
2023-04-09T07:14:53.591Z,497.9167
2023-04-09T07:15:57.508Z,497.3333
2023-04-09T07:17:01.428Z,503.7500
2023-04-09T07:18:05.309Z,504.0833
2023-04-09T07:19:09.217Z,499.2500
2023-04-09T07:20:13.314Z,499.0000
2023-04-09T07:21:17.236Z,494.1667
2023-04-09T07:22:21.114Z,497.0833
2023-04-09T07:23:25.021Z,498.9167
2023-04-09T07:24:28.905Z,498.4167
2023-04-09T07:25:32.858Z,501.5833
2023-04-09T07:26:36.706Z,499.7500
2023-04-09T07:27:40.616Z,501.1667
2023-04-09T07:28:44.503Z,501.9167
2023-04-09T07:29:48.429Z,501.2500
2023-04-09T07:30:52.316Z,500.2500
2023-04-09T07:31:56.244Z,502.4167
2023-04-09T07:33:00.520Z,504.1667
2023-04-09T07:34:04.423Z,501.8333
2023-04-09T07:35:08.307Z,498.7500
2023-04-09T07:36:12.463Z,501.0833
2023-04-09T07:37:16.379Z,500.5000
2023-04-09T07:38:20.281Z,498.9167
2023-04-09T07:39:24.174Z,498.0833
2023-04-09T07:40:24.685Z,497.9091
2023-04-09T07:41:28.590Z,500.0000
2023-04-09T07:42:32.698Z,504.0833
2023-04-09T07:43:36.589Z,503.5000
2023-04-09T07:44:40.500Z,507.6667
2023-04-09T07:45:44.411Z,506.0833
2023-04-09T07:46:48.346Z,500.9167
2023-04-09T07:47:52.251Z,499.0833
2023-04-09T07:48:56.137Z,499.5000
2023-04-09T07:50:00.060Z,499.1667
2023-04-09T07:51:04.170Z,498.3333
2023-04-09T07:52:08.083Z,498.5000
2023-04-09T07:53:11.964Z,499.0000
2023-04-09T07:54:15.862Z,497.2500
2023-04-09T07:55:20.022Z,494.6667
2023-04-09T07:56:23.935Z,496.4167
2023-04-09T07:57:27.821Z,499.7500
2023-04-09T07:58:31.714Z,501.3333
2023-04-09T07:59:35.608Z,501.1667
2023-04-09T08:00:36.050Z,500.0909
2023-04-09T08:01:39.968Z,498.3333
2023-04-09T08:02:43.970Z,494.5833
2023-04-09T08:03:48.102Z,494.5000
2023-04-09T08:04:52.109Z,494.8333
2023-04-09T08:05:52.612Z,495.7273
2023-04-09T08:06:56.505Z,497.0833
2023-04-09T08:08:00.425Z,495.6667
2023-04-09T08:09:04.308Z,493.8333
2023-04-09T08:10:08.206Z,494.6667
2023-04-09T08:11:12.102Z,495.2500
2023-04-09T08:12:16.025Z,498.7500
2023-04-09T08:13:19.901Z,498.6667
2023-04-09T08:14:23.807Z,498.0000
2023-04-09T08:15:27.775Z,500.6667
2023-04-09T08:16:31.662Z,498.4167
2023-04-09T08:17:35.540Z,496.8333
2023-04-09T08:18:39.632Z,497.4167
2023-04-09T08:19:43.534Z,498.2500
2023-04-09T08:20:47.647Z,498.2500
2023-04-09T08:21:51.554Z,503.2500
2023-04-09T08:22:55.443Z,501.2500
2023-04-09T08:23:59.358Z,494.5833
2023-04-09T08:25:03.250Z,493.7500
2023-04-09T08:26:07.136Z,494.8333
2023-04-09T08:27:11.036Z,499.3333
2023-04-09T08:28:14.966Z,497.6667
2023-04-09T08:29:18.834Z,497.3333
2023-04-09T08:30:22.782Z,497.9167
2023-04-09T08:31:26.681Z,493.7500
2023-04-09T08:32:30.628Z,490.5000
2023-04-09T08:33:34.498Z,497.1667
2023-04-09T08:34:38.410Z,496.5833
2023-04-09T08:35:42.299Z,498.4167
2023-04-09T08:36:46.249Z,493.5833
2023-04-09T08:37:50.100Z,496.9167
2023-04-09T08:38:54.099Z,497.5833
2023-04-09T08:39:58.122Z,499.6667
2023-04-09T08:41:02.044Z,501.2500
2023-04-09T08:42:05.939Z,498.3333
2023-04-09T08:43:10.067Z,502.7500
2023-04-09T08:44:13.961Z,503.0833
2023-04-09T08:45:17.874Z,498.2500
2023-04-09T08:46:21.779Z,503.0000
2023-04-09T08:47:25.717Z,504.3333
2023-04-09T08:48:29.683Z,497.4167
2023-04-09T08:49:33.576Z,495.3333
2023-04-09T08:50:37.806Z,495.2500
2023-04-09T08:51:41.696Z,497.5000
2023-04-09T08:52:45.600Z,499.6667
2023-04-09T08:53:49.721Z,497.6667
2023-04-09T08:54:53.650Z,497.0000
2023-04-09T08:55:57.550Z,497.1667
2023-04-09T08:57:01.466Z,496.4167
2023-04-09T08:58:05.356Z,494.1667
2023-04-09T08:59:09.260Z,492.6667
2023-04-09T09:00:13.148Z,496.0000
2023-04-09T09:01:17.084Z,495.8333
2023-04-09T09:02:21.035Z,497.5833
2023-04-09T09:03:25.040Z,495.3333
2023-04-09T09:04:29.025Z,492.9167
2023-04-09T09:05:32.940Z,491.0833
2023-04-09T09:06:36.843Z,492.8333
2023-04-09T09:07:40.736Z,491.6667
2023-04-09T09:08:44.629Z,495.2500
2023-04-09T09:09:48.529Z,495.1667
2023-04-09T09:10:52.428Z,497.0000
2023-04-09T09:11:56.336Z,499.0833
2023-04-09T09:13:00.282Z,499.4167
2023-04-09T09:14:04.195Z,502.0000
2023-04-09T09:15:08.093Z,499.6667
2023-04-09T09:16:12.053Z,499.0000
2023-04-09T09:17:15.947Z,497.0000
2023-04-09T09:18:19.850Z,498.0000
2023-04-09T09:19:23.751Z,499.9167
2023-04-09T09:20:27.803Z,501.1667
2023-04-09T09:21:31.758Z,502.4167
2023-04-09T09:22:35.644Z,505.6667
2023-04-09T09:23:39.553Z,503.8333
2023-04-09T09:24:43.450Z,502.3333
2023-04-09T09:25:47.366Z,500.5833
2023-04-09T09:26:51.270Z,500.5000
2023-04-09T09:27:55.422Z,499.0833
2023-04-09T09:28:59.328Z,500.8333
2023-04-09T09:30:03.208Z,500.7500
2023-04-09T09:31:07.119Z,499.6667
2023-04-09T09:32:10.991Z,497.5000
2023-04-09T09:33:14.895Z,497.8333
2023-04-09T09:34:18.821Z,500.5833
2023-04-09T09:35:22.782Z,502.0833
2023-04-09T09:36:26.663Z,499.6667
2023-04-09T09:37:30.562Z,502.5000
2023-04-09T09:38:34.441Z,501.8333
2023-04-09T09:39:38.352Z,501.5000
2023-04-09T09:40:42.240Z,499.4167
2023-04-09T09:41:46.148Z,501.1667
2023-04-09T09:42:50.047Z,500.7500
2023-04-09T09:43:53.946Z,501.0000
2023-04-09T09:44:57.834Z,503.2500
2023-04-09T09:46:02.002Z,505.5000
2023-04-09T09:47:05.931Z,503.5833
2023-04-09T09:48:10.133Z,499.4167
2023-04-09T09:49:14.021Z,499.0833
2023-04-09T09:50:18.017Z,498.0833
2023-04-09T09:51:22.024Z,499.1667
2023-04-09T09:52:26.733Z,493.5000
2023-04-09T09:53:30.647Z,500.0833
2023-04-09T09:54:34.546Z,504.4167
2023-04-09T09:55:38.455Z,503.1667
2023-04-09T09:56:42.365Z,504.9167
2023-04-09T09:57:46.284Z,500.6667
2023-04-09T09:58:50.651Z,499.9167
2023-04-09T09:59:54.688Z,502.0833
2023-04-09T10:00:58.632Z,503.4167
2023-04-09T10:02:02.572Z,499.3333
2023-04-09T10:03:06.869Z,499.3333
2023-04-09T10:04:10.814Z,502.0833
2023-04-09T10:05:14.681Z,498.8333
2023-04-09T10:06:18.577Z,497.8333
2023-04-09T10:07:22.501Z,496.8333
2023-04-09T10:08:26.463Z,501.1667
2023-04-09T10:09:30.401Z,505.5833
2023-04-09T10:10:34.296Z,506.5000
2023-04-09T10:11:38.204Z,501.9167
2023-04-09T10:12:42.116Z,500.5000
2023-04-09T10:13:46.001Z,501.5833
2023-04-09T10:14:49.906Z,498.5833
2023-04-09T10:15:53.897Z,500.0833
2023-04-09T10:16:57.794Z,502.3333
2023-04-09T10:18:01.704Z,505.5833
2023-04-09T10:19:05.593Z,505.9167
2023-04-09T10:20:09.482Z,505.4167
2023-04-09T10:21:13.379Z,503.1667
2023-04-09T10:22:17.261Z,502.3333
2023-04-09T10:23:21.168Z,505.7500
2023-04-09T10:24:25.061Z,505.7500
2023-04-09T10:25:28.961Z,508.0833
2023-04-09T10:26:32.860Z,506.2500
2023-04-09T10:27:36.758Z,503.5000
2023-04-09T10:28:40.655Z,505.5000
2023-04-09T10:29:44.555Z,497.7500
2023-04-09T10:30:48.688Z,494.0000
2023-04-09T10:31:52.574Z,498.2500
2023-04-09T10:32:56.536Z,511.7500
2023-04-09T10:34:00.394Z,512.1667
2023-04-09T10:35:04.326Z,508.2500
2023-04-09T10:36:08.194Z,499.5833
2023-04-09T10:37:12.093Z,500.6667
2023-04-09T10:38:16.013Z,497.3333
2023-04-09T10:39:19.897Z,499.1667
2023-04-09T10:40:23.776Z,500.3333
2023-04-09T10:41:27.718Z,500.0833
2023-04-09T10:42:31.583Z,501.1667
2023-04-09T10:43:35.497Z,499.5000
2023-04-09T10:44:39.378Z,496.9167
2023-04-09T10:45:43.285Z,499.0833
2023-04-09T10:46:47.221Z,502.1667
2023-04-09T10:47:51.169Z,502.8333
2023-04-09T10:48:55.020Z,502.8333
2023-04-09T10:49:58.928Z,499.4167
2023-04-09T10:51:02.817Z,496.1667
2023-04-09T10:52:07.123Z,497.0000
2023-04-09T10:53:07.159Z,493.8182
2023-04-09T10:54:11.084Z,490.8333
2023-04-09T10:55:14.972Z,488.2500
2023-04-09T10:56:18.877Z,492.1667
2023-04-09T10:57:22.762Z,491.8333
2023-04-09T10:58:26.657Z,491.9167
2023-04-09T10:59:30.549Z,496.7500
2023-04-09T11:00:34.463Z,497.3333
2023-04-09T11:01:38.467Z,495.1667
2023-04-09T11:02:42.572Z,491.0000
2023-04-09T11:03:46.552Z,496.9167
2023-04-09T11:04:50.477Z,498.3333
2023-04-09T11:05:54.353Z,498.7500
2023-04-09T11:06:58.233Z,497.5833
2023-04-09T11:08:02.128Z,498.3333
2023-04-09T11:09:02.539Z,496.2727
2023-04-09T11:10:06.452Z,494.3333
2023-04-09T11:11:10.336Z,496.3333
2023-04-09T11:12:14.248Z,497.5000
2023-04-09T11:13:14.458Z,495.0000
2023-04-09T11:14:18.366Z,491.3333
2023-04-09T11:15:22.253Z,489.5000
2023-04-09T11:16:27.883Z,490.0833
2023-04-09T11:17:27.582Z,489.7273
2023-04-09T11:18:27.907Z,489.0000
2023-04-09T11:19:31.787Z,495.8333
2023-04-09T11:20:35.725Z,495.6667
2023-04-09T11:21:39.578Z,494.5000
2023-04-09T11:22:43.488Z,499.6667
2023-04-09T11:23:47.597Z,497.4167
2023-04-09T11:24:51.508Z,496.9167
2023-04-09T11:25:55.614Z,495.7500
2023-04-09T11:26:59.516Z,495.2500
2023-04-09T11:28:03.406Z,492.6667
2023-04-09T11:29:07.305Z,492.6667
2023-04-09T11:30:11.243Z,489.1667
2023-04-09T11:31:15.151Z,491.7500
2023-04-09T11:32:19.000Z,494.9167
2023-04-09T11:33:23.139Z,494.0000
2023-04-09T11:34:27.021Z,495.4167
2023-04-09T11:35:30.984Z,497.8333
2023-04-09T11:36:35.088Z,492.5833
2023-04-09T11:37:38.988Z,492.1667
2023-04-09T11:38:42.881Z,492.0000
2023-04-09T11:39:46.779Z,490.1667
2023-04-09T11:40:50.901Z,491.9167
2023-04-09T11:41:54.821Z,486.8333
2023-04-09T11:42:58.686Z,488.8333
2023-04-09T11:44:02.577Z,488.4167
2023-04-09T11:45:06.496Z,490.3333
2023-04-09T11:46:10.377Z,490.8333
2023-04-09T11:47:14.285Z,490.8333
2023-04-09T11:48:18.228Z,491.0000
2023-04-09T11:49:22.152Z,489.4167
2023-04-09T11:50:26.025Z,487.5000
2023-04-09T11:51:29.928Z,487.0000
2023-04-09T11:52:33.813Z,487.5833
2023-04-09T11:53:37.726Z,487.4167
2023-04-09T11:54:41.624Z,486.0000
2023-04-09T11:55:45.618Z,487.4167
2023-04-09T11:56:49.764Z,486.5833
2023-04-09T11:57:53.679Z,488.8333
2023-04-09T11:58:57.575Z,490.0000
2023-04-09T12:00:03.806Z,489.6667
2023-04-09T12:01:03.897Z,493.1818
2023-04-09T12:02:07.885Z,494.4167
2023-04-09T12:03:12.135Z,488.0833
2023-04-09T12:04:16.587Z,487.6667
2023-04-09T12:05:20.549Z,486.3333
2023-04-09T12:06:24.558Z,487.6667
2023-04-09T12:07:28.437Z,489.0000
2023-04-09T12:08:32.560Z,487.6667
2023-04-09T12:09:36.469Z,487.1667
2023-04-09T12:10:40.339Z,486.5000
2023-04-09T12:11:44.220Z,489.4167
2023-04-09T12:12:48.144Z,489.8333
2023-04-09T12:13:52.033Z,489.5833
2023-04-09T12:14:55.920Z,487.0000
2023-04-09T12:16:00.050Z,486.1667
2023-04-09T12:17:03.967Z,483.1667
2023-04-09T12:18:07.932Z,484.6667
2023-04-09T12:19:12.044Z,482.8333
2023-04-09T12:20:15.954Z,481.4167
2023-04-09T12:21:19.836Z,486.1667
2023-04-09T12:22:23.742Z,490.2500
2023-04-09T12:23:27.641Z,490.3333
2023-04-09T12:24:31.546Z,485.5833
2023-04-09T12:25:35.460Z,489.5000
2023-04-09T12:26:39.338Z,492.7500
2023-04-09T12:27:43.223Z,492.3333
2023-04-09T12:28:47.137Z,493.1667
2023-04-09T12:29:51.019Z,494.9167